createdAt,value
2019-03-25T00:01:28.041Z,13.17
2019-03-25T00:04:33.009Z,12.10
2019-03-25T00:07:37.669Z,15.63
2019-03-25T00:10:42.095Z,20.97
2019-03-25T00:13:46.664Z,14.07
2019-03-25T00:16:51.165Z,14.43
2019-03-25T00:19:55.752Z,15.83
2019-03-25T00:23:00.259Z,19.53
2019-03-25T00:26:04.740Z,14.73
2019-03-25T00:29:09.241Z,13.90
2019-03-25T00:32:14.082Z,14.17
2019-03-25T00:35:18.532Z,14.87
2019-03-25T00:38:22.996Z,19.40
2019-03-25T00:41:27.767Z,15.90
2019-03-25T00:44:32.254Z,14.93
2019-03-25T00:47:36.722Z,13.17
2019-03-25T00:50:41.490Z,13.63
2019-03-25T00:53:46.811Z,13.43
2019-03-25T00:56:51.527Z,16.10
2019-03-25T00:59:56.103Z,12.83
2019-03-25T01:03:00.677Z,16.57
2019-03-25T01:06:05.200Z,15.40
2019-03-25T01:09:09.712Z,16.10
2019-03-25T01:12:14.251Z,11.67
2019-03-25T01:15:18.751Z,13.53
2019-03-25T01:18:23.408Z,18.67
2019-03-25T01:21:27.905Z,12.97
2019-03-25T01:24:32.574Z,12.23
2019-03-25T01:27:37.402Z,11.17
2019-03-25T01:30:42.316Z,15.33
2019-03-25T01:33:46.866Z,16.40
2019-03-25T01:36:51.583Z,16.20
2019-03-25T01:39:55.995Z,16.23
2019-03-25T01:43:02.152Z,14.47
2019-03-25T01:46:06.766Z,11.53
2019-03-25T01:49:11.550Z,12.30
2019-03-25T01:52:16.417Z,13.10
2019-03-25T01:55:21.651Z,14.70
2019-03-25T01:58:25.974Z,19.37
2019-03-25T02:01:30.768Z,10.57
2019-03-25T02:04:35.488Z,16.30
2019-03-25T02:07:40.222Z,12.27
2019-03-25T02:10:44.707Z,13.40
2019-03-25T02:13:49.514Z,15.13
2019-03-25T02:16:54.079Z,14.37
2019-03-25T02:20:01.205Z,15.03
2019-03-25T02:23:05.950Z,15.03
2019-03-25T02:26:10.528Z,16.90
2019-03-25T02:29:16.127Z,10.60
2019-03-25T02:32:20.631Z,14.27
2019-03-25T02:35:25.147Z,11.93
2019-03-25T02:38:29.908Z,13.30
2019-03-25T02:41:34.814Z,12.73
2019-03-25T02:44:39.783Z,12.83
2019-03-25T02:47:44.360Z,13.70
2019-03-25T02:50:48.804Z,9.63
2019-03-25T02:53:54.036Z,12.67
2019-03-25T02:56:58.931Z,9.10
2019-03-25T03:00:03.648Z,15.80
2019-03-25T03:03:08.945Z,8.73
2019-03-25T03:06:13.461Z,14.10
2019-03-25T03:09:17.858Z,14.03
2019-03-25T03:12:22.298Z,10.20
2019-03-25T03:15:27.487Z,12.57
2019-03-25T03:18:31.991Z,10.57
2019-03-25T03:21:36.416Z,8.63
2019-03-25T03:24:41.678Z,9.83
2019-03-25T03:27:46.518Z,11.50
2019-03-25T03:30:50.880Z,12.17
2019-03-25T03:33:55.594Z,13.70
2019-03-25T03:37:00.324Z,13.73
2019-03-25T03:40:05.217Z,10.73
2019-03-25T03:43:09.784Z,8.83
2019-03-25T03:46:14.357Z,10.97
2019-03-25T03:49:19.023Z,10.53
2019-03-25T03:52:24.223Z,13.57
2019-03-25T03:55:29.830Z,14.20
2019-03-25T03:58:35.248Z,11.43
2019-03-25T04:01:40.053Z,10.13
2019-03-25T04:04:44.653Z,11.17
2019-03-25T04:07:49.413Z,13.20
2019-03-25T04:10:54.200Z,11.57
2019-03-25T04:13:58.706Z,8.90
2019-03-25T04:17:03.596Z,12.37
2019-03-25T04:20:08.573Z,12.53
2019-03-25T04:23:13.365Z,11.03
2019-03-25T04:26:28.589Z,12.17
2019-03-25T04:29:24.363Z,9.50
2019-03-25T04:32:29.092Z,13.67
2019-03-25T04:35:33.858Z,13.50
2019-03-25T04:38:38.217Z,12.67
2019-03-25T04:41:42.643Z,10.40
2019-03-25T04:44:47.424Z,12.97
2019-03-25T04:47:52.233Z,10.53
2019-03-25T04:50:57.020Z,13.93
2019-03-25T04:54:01.498Z,18.03
2019-03-25T04:57:06.097Z,13.07
2019-03-25T05:00:11.607Z,10.50
2019-03-25T05:03:16.546Z,11.57
2019-03-25T05:06:21.507Z,10.93
2019-03-25T05:09:27.364Z,12.63
2019-03-25T05:12:32.146Z,12.20
2019-03-25T05:15:36.636Z,13.13
2019-03-25T05:18:41.333Z,14.27
2019-03-25T05:21:45.757Z,9.90
2019-03-25T05:24:50.264Z,12.13
2019-03-25T05:27:56.498Z,13.97
2019-03-25T05:31:01.831Z,14.17
2019-03-25T05:34:06.357Z,10.40
2019-03-25T05:37:11.286Z,14.60
2019-03-25T05:40:15.869Z,11.07
2019-03-25T05:43:21.229Z,10.63
2019-03-25T05:46:25.891Z,9.90
2019-03-25T05:49:30.573Z,10.87
2019-03-25T05:52:34.998Z,14.83
2019-03-25T05:55:40.890Z,16.13
2019-03-25T05:58:45.563Z,14.73
2019-03-25T06:01:50.107Z,18.77
2019-03-25T06:04:54.622Z,22.50
2019-03-25T06:07:59.185Z,19.73
2019-03-25T06:11:04.003Z,21.47
2019-03-25T06:14:08.428Z,19.07
2019-03-25T06:17:12.946Z,15.37
2019-03-25T06:20:17.575Z,14.27
2019-03-25T06:23:21.997Z,18.20
2019-03-25T06:26:26.881Z,15.10
2019-03-25T06:29:32.146Z,13.87
2019-03-25T06:32:38.448Z,15.83
2019-03-25T06:35:42.944Z,15.67
2019-03-25T06:38:47.431Z,13.53
2019-03-25T06:41:52.293Z,12.70
2019-03-25T06:44:57.139Z,11.30
2019-03-25T06:48:01.632Z,13.97
2019-03-25T06:51:06.147Z,10.67
2019-03-25T06:54:10.678Z,11.87
2019-03-25T06:57:25.243Z,13.80
2019-03-25T07:00:21.945Z,11.73
2019-03-25T07:03:26.750Z,17.00
2019-03-25T07:06:31.297Z,16.97
2019-03-25T07:09:36.095Z,11.07
2019-03-25T07:12:40.693Z,13.80
2019-03-25T07:15:45.460Z,13.43
2019-03-25T07:18:51.323Z,11.97
2019-03-25T07:21:55.767Z,13.40
2019-03-25T07:25:00.987Z,12.73
2019-03-25T07:28:05.509Z,14.13
2019-03-25T07:31:10.236Z,12.40
2019-03-25T07:34:15.404Z,16.60
2019-03-25T07:37:20.227Z,12.53
2019-03-25T07:40:25.317Z,15.33
2019-03-25T07:43:29.731Z,10.70
2019-03-25T07:46:34.221Z,12.27
2019-03-25T07:49:39.067Z,10.60
2019-03-25T07:52:43.606Z,13.47
2019-03-25T07:55:48.029Z,13.20
2019-03-25T07:58:52.499Z,12.90
2019-03-25T08:01:57.510Z,8.13
2019-03-25T08:05:02.320Z,9.13
2019-03-25T08:08:07.476Z,16.53
2019-03-25T08:11:12.654Z,11.97
2019-03-25T08:14:17.514Z,11.30
2019-03-25T08:17:22.013Z,11.30
2019-03-25T08:20:26.519Z,14.10
2019-03-25T08:23:31.349Z,9.07
2019-03-25T08:26:35.781Z,13.53
2019-03-25T08:29:40.231Z,11.70
2019-03-25T08:32:45.381Z,12.23
2019-03-25T08:35:50.308Z,14.53
2019-03-25T08:38:55.182Z,14.13
2019-03-25T08:42:00.740Z,10.50
2019-03-25T08:45:05.635Z,8.10
2019-03-25T08:48:10.192Z,13.30
2019-03-25T08:51:14.643Z,13.83
2019-03-25T08:54:19.903Z,11.10
2019-03-25T08:57:24.729Z,13.77
2019-03-25T09:00:29.574Z,11.57
2019-03-25T09:03:34.106Z,13.47
2019-03-25T09:06:39.437Z,12.37
2019-03-25T09:09:44.284Z,11.73
2019-03-25T09:12:49.106Z,9.13
2019-03-25T09:15:54.159Z,11.60
2019-03-25T09:18:58.545Z,12.23
2019-03-25T09:22:03.055Z,9.07
2019-03-25T09:25:08.575Z,12.73
2019-03-25T09:28:23.705Z,9.10
2019-03-25T09:31:22.010Z,10.00
2019-03-25T09:34:27.129Z,8.37
2019-03-25T09:37:32.287Z,8.97
2019-03-25T09:40:36.712Z,11.23
2019-03-25T09:43:41.621Z,9.90
2019-03-25T09:46:46.118Z,8.73
2019-03-25T09:49:50.647Z,10.57
2019-03-25T09:52:55.064Z,9.87
2019-03-25T09:56:00.033Z,7.57
2019-03-25T09:59:05.076Z,9.07
2019-03-25T10:02:09.863Z,7.57
2019-03-25T10:05:14.739Z,7.13
2019-03-25T10:08:19.337Z,7.70
2019-03-25T10:11:23.658Z,10.27
2019-03-25T10:14:28.183Z,8.20
2019-03-25T10:17:32.568Z,7.70
2019-03-25T10:20:37.329Z,10.40
2019-03-25T10:23:41.801Z,9.07
2019-03-25T10:26:46.327Z,11.23
2019-03-25T10:29:50.793Z,8.00
2019-03-25T10:32:55.329Z,11.23
2019-03-25T10:36:00.199Z,8.80
2019-03-25T10:39:06.342Z,9.37
2019-03-25T10:42:10.780Z,13.13
2019-03-25T10:45:15.362Z,6.53
2019-03-25T10:48:19.870Z,5.73
2019-03-25T10:51:24.312Z,4.67
2019-03-25T10:54:28.771Z,11.27
2019-03-25T10:57:33.272Z,3.77
2019-03-25T11:00:37.919Z,9.43
2019-03-25T11:03:42.690Z,4.97
2019-03-25T11:06:47.145Z,5.93
2019-03-25T11:09:51.741Z,5.30
2019-03-25T11:12:56.243Z,3.47
2019-03-25T11:16:00.693Z,3.80
2019-03-25T11:19:05.256Z,4.40
2019-03-25T11:22:09.972Z,3.77
2019-03-25T11:25:15.921Z,4.67
2019-03-25T11:28:20.432Z,3.73
2019-03-25T11:31:24.939Z,3.53
2019-03-25T11:34:29.418Z,4.80
2019-03-25T11:37:33.853Z,3.27
2019-03-25T11:40:38.229Z,3.77
2019-03-25T11:43:42.896Z,7.53
2019-03-25T11:46:47.393Z,6.77
2019-03-25T11:49:52.176Z,4.50
2019-03-25T11:52:56.626Z,6.43
2019-03-25T11:56:01.097Z,5.10
2019-03-25T11:59:05.637Z,4.73
2019-03-25T12:02:17.303Z,6.23
2019-03-25T12:05:16.414Z,5.00
2019-03-25T12:08:20.870Z,4.70
2019-03-25T12:11:25.517Z,4.53
2019-03-25T12:14:29.919Z,5.53
2019-03-25T12:17:34.447Z,4.73
2019-03-25T12:20:39.313Z,5.17
2019-03-25T12:23:43.806Z,4.13
2019-03-25T12:26:48.477Z,5.60
2019-03-25T12:29:52.961Z,4.43
2019-03-25T12:33:03.975Z,5.17
2019-03-25T12:36:04.876Z,5.73
2019-03-25T12:39:09.566Z,5.33
2019-03-25T12:42:14.041Z,5.67
2019-03-25T12:45:18.592Z,3.27
2019-03-25T12:48:23.296Z,2.40
2019-03-25T12:51:28.575Z,3.60
2019-03-25T12:54:33.070Z,3.60
2019-03-25T12:57:37.521Z,6.37
2019-03-25T13:00:43.551Z,3.47
2019-03-25T13:03:48.550Z,4.83
2019-03-25T13:06:53.148Z,6.50
2019-03-25T13:09:57.614Z,2.87
2019-03-25T13:13:02.112Z,2.93
2019-03-25T13:16:06.611Z,2.07
2019-03-25T13:19:11.436Z,4.63
2019-03-25T13:22:16.364Z,3.13
2019-03-25T13:25:20.887Z,3.13
2019-03-25T13:28:26.047Z,4.20
2019-03-25T13:31:30.764Z,3.37
2019-03-25T13:34:35.186Z,5.10
2019-03-25T13:37:40.028Z,3.93
2019-03-25T13:40:44.418Z,3.03
2019-03-25T13:43:49.021Z,4.50
2019-03-25T13:46:53.455Z,4.73
2019-03-25T13:49:57.876Z,4.40
2019-03-25T13:53:02.366Z,4.03
2019-03-25T13:56:06.932Z,3.40
2019-03-25T13:59:11.471Z,4.20
2019-03-25T14:02:16.210Z,4.60
2019-03-25T14:05:20.867Z,3.00
2019-03-25T14:08:25.811Z,2.40
2019-03-25T14:11:30.275Z,3.67
2019-03-25T14:14:35.035Z,3.43
2019-03-25T14:17:40.107Z,2.63
2019-03-25T14:20:44.672Z,3.13
2019-03-25T14:23:49.478Z,4.43
2019-03-25T14:26:53.978Z,5.57
2019-03-25T14:30:00.733Z,2.43
2019-03-25T14:33:04.736Z,3.13
2019-03-25T14:36:09.176Z,1.73
2019-03-25T14:39:13.515Z,2.60
2019-03-25T14:42:18.005Z,2.90
2019-03-25T14:45:26.621Z,3.17
2019-03-25T14:48:29.640Z,2.93
2019-03-25T14:51:34.583Z,1.63
2019-03-25T14:54:40.116Z,2.93
2019-03-25T14:57:45.308Z,4.97
2019-03-25T15:00:49.883Z,2.13
2019-03-25T15:03:55.105Z,3.30
2019-03-25T15:07:00.107Z,3.57
2019-03-25T15:10:05.153Z,3.30
2019-03-25T15:13:09.630Z,1.70
2019-03-25T15:16:14.564Z,3.43
2019-03-25T15:19:19.245Z,2.90
2019-03-25T15:22:24.210Z,2.40
2019-03-25T15:25:28.720Z,5.63
2019-03-25T15:28:33.633Z,5.83
2019-03-25T15:31:39.010Z,1.90
2019-03-25T15:34:43.896Z,2.33
2019-03-25T15:37:48.487Z,3.10
2019-03-25T15:40:53.308Z,3.23
2019-03-25T15:43:57.744Z,2.13
2019-03-25T15:47:02.585Z,2.87
2019-03-25T15:50:08.986Z,4.67
2019-03-25T15:53:13.464Z,2.00
2019-03-25T15:56:18.394Z,3.90
2019-03-25T15:59:23.380Z,2.63
2019-03-25T16:02:27.849Z,2.17
2019-03-25T16:05:32.536Z,4.27
2019-03-25T16:08:37.241Z,2.40
2019-03-25T16:11:42.213Z,3.43
2019-03-25T16:14:46.923Z,3.30
2019-03-25T16:17:51.555Z,4.87
2019-03-25T16:20:56.092Z,4.00
2019-03-25T16:24:00.970Z,2.93
2019-03-25T16:27:05.370Z,4.10
2019-03-25T16:30:10.098Z,3.47
2019-03-25T16:33:14.572Z,4.93
2019-03-25T16:36:19.493Z,3.70
2019-03-25T16:39:24.375Z,3.80
2019-03-25T16:42:28.770Z,2.60
2019-03-25T16:45:33.190Z,4.10
2019-03-25T16:48:37.839Z,4.73
2019-03-25T16:51:42.364Z,5.37
2019-03-25T16:54:47.147Z,2.40
2019-03-25T16:57:51.692Z,6.67
2019-03-25T17:00:57.270Z,3.07
2019-03-25T17:04:01.797Z,4.40
2019-03-25T17:07:06.082Z,2.57
2019-03-25T17:10:10.909Z,4.27
2019-03-25T17:13:15.334Z,4.17
2019-03-25T17:16:19.790Z,3.43
2019-03-25T17:19:24.422Z,3.47
2019-03-25T17:22:28.868Z,2.13
2019-03-25T17:25:33.236Z,3.47
2019-03-25T17:28:38.083Z,2.77
2019-03-25T17:31:44.487Z,2.73
2019-03-25T17:34:49.216Z,1.47
2019-03-25T17:37:53.725Z,2.57
2019-03-25T17:40:58.256Z,3.57
2019-03-25T17:44:03.772Z,4.37
2019-03-25T17:47:08.323Z,2.57
2019-03-25T17:50:13.139Z,2.63
2019-03-25T17:53:18.275Z,3.00
2019-03-25T17:56:23.071Z,3.17
2019-03-25T17:59:27.864Z,2.50
2019-03-25T18:02:32.304Z,2.87
2019-03-25T18:05:36.597Z,2.23
2019-03-25T18:08:41.073Z,1.70
2019-03-25T18:11:45.514Z,4.77
2019-03-25T18:14:50.157Z,2.27
2019-03-25T18:17:54.455Z,2.50
2019-03-25T18:20:59.229Z,10.57
2019-03-25T18:24:04.125Z,57.13
2019-03-25T18:27:09.103Z,21.53
2019-03-25T18:30:13.712Z,3.40
2019-03-25T18:33:18.455Z,1.37
2019-03-25T18:36:22.879Z,2.60
2019-03-25T18:39:27.757Z,0.73
2019-03-25T18:42:32.191Z,0.70
2019-03-25T18:45:36.686Z,0.87
2019-03-25T18:48:41.058Z,0.80
2019-03-25T18:51:45.687Z,0.93
2019-03-25T18:54:50.519Z,0.73
2019-03-25T18:57:54.974Z,1.63
2019-03-25T19:00:59.472Z,3.40
2019-03-25T19:04:04.332Z,2.43
2019-03-25T19:07:08.858Z,1.87
2019-03-25T19:10:16.623Z,1.70
2019-03-25T19:13:20.931Z,1.60
2019-03-25T19:16:25.409Z,1.57
2019-03-25T19:19:30.096Z,1.17
2019-03-25T19:22:34.851Z,1.73
2019-03-25T19:25:39.461Z,2.67
2019-03-25T19:28:43.776Z,3.30
2019-03-25T19:31:48.192Z,4.90
2019-03-25T19:34:52.601Z,1.63
2019-03-25T19:37:57.215Z,3.63
2019-03-25T19:41:01.943Z,4.90
2019-03-25T19:44:06.531Z,2.37
2019-03-25T19:47:10.871Z,4.30
2019-03-25T19:50:15.974Z,4.63
2019-03-25T19:53:20.978Z,4.33
2019-03-25T19:56:25.634Z,3.37
2019-03-25T19:59:30.452Z,4.90
2019-03-25T20:02:35.012Z,4.67
2019-03-25T20:05:39.755Z,5.73
2019-03-25T20:08:44.217Z,4.37
2019-03-25T20:11:48.869Z,5.53
2019-03-25T20:14:53.346Z,4.20
2019-03-25T20:17:57.997Z,6.23
2019-03-25T20:21:02.442Z,4.60
2019-03-25T20:24:07.255Z,7.23
2019-03-25T20:27:11.725Z,7.30
2019-03-25T20:30:17.403Z,7.40
2019-03-25T20:33:21.925Z,6.60
2019-03-25T20:36:26.550Z,7.17
2019-03-25T20:39:31.262Z,5.97
2019-03-25T20:42:35.879Z,6.50
2019-03-25T20:45:40.243Z,7.60
2019-03-25T20:48:45.291Z,7.43
2019-03-25T20:51:49.743Z,6.13
2019-03-25T20:54:54.048Z,6.20
2019-03-25T20:57:58.505Z,6.13
2019-03-25T21:01:04.782Z,7.63
2019-03-25T21:04:10.128Z,7.47
2019-03-25T21:07:14.501Z,5.87
2019-03-25T21:10:19.006Z,8.33
2019-03-25T21:13:23.383Z,6.13
2019-03-25T21:16:27.776Z,6.40
2019-03-25T21:19:32.214Z,7.27
2019-03-25T21:22:36.559Z,6.53
2019-03-25T21:25:40.902Z,8.33
2019-03-25T21:28:45.387Z,5.40
2019-03-25T21:31:49.829Z,6.43
2019-03-25T21:34:54.361Z,5.70
2019-03-25T21:37:59.069Z,6.30
2019-03-25T21:41:03.818Z,8.37
2019-03-25T21:44:08.155Z,6.87
2019-03-25T21:47:12.536Z,7.23
2019-03-25T21:50:16.976Z,5.97
2019-03-25T21:53:21.505Z,9.37
2019-03-25T21:56:25.968Z,5.87
2019-03-25T21:59:30.516Z,9.93
2019-03-25T22:02:34.821Z,7.57
2019-03-25T22:05:39.458Z,10.03
2019-03-25T22:08:43.786Z,8.17
2019-03-25T22:11:48.142Z,8.30
2019-03-25T22:14:52.741Z,8.67
2019-03-25T22:17:57.305Z,7.53
2019-03-25T22:21:01.715Z,7.57
2019-03-25T22:24:06.016Z,8.13
2019-03-25T22:27:10.930Z,7.83
2019-03-25T22:30:15.747Z,7.77
2019-03-25T22:33:26.154Z,8.37
2019-03-25T22:36:26.924Z,9.50
2019-03-25T22:39:31.319Z,9.90
2019-03-25T22:42:35.794Z,9.77
2019-03-25T22:45:40.289Z,9.10
2019-03-25T22:48:45.235Z,8.17
2019-03-25T22:51:49.815Z,10.17
2019-03-25T22:54:54.217Z,11.17
2019-03-25T22:57:58.973Z,12.70
2019-03-25T23:01:05.036Z,11.47
2019-03-25T23:04:09.409Z,11.20
2019-03-25T23:07:14.572Z,11.90
2019-03-25T23:10:19.093Z,12.80
2019-03-25T23:13:24.849Z,13.73
2019-03-25T23:16:29.299Z,13.80
2019-03-25T23:19:34.178Z,12.97
2019-03-25T23:22:38.663Z,13.03
2019-03-25T23:25:43.807Z,14.27
2019-03-25T23:28:48.560Z,14.40
2019-03-25T23:31:53.279Z,15.67
2019-03-25T23:34:57.722Z,15.83
2019-03-25T23:38:02.646Z,15.13
2019-03-25T23:41:07.170Z,18.37
2019-03-25T23:44:11.715Z,16.90
2019-03-25T23:47:16.194Z,16.53
2019-03-25T23:50:20.594Z,19.83
2019-03-25T23:53:25.516Z,16.83
2019-03-25T23:56:30.036Z,17.13
2019-03-25T23:59:34.842Z,14.87
